createdAt,value
2022-12-16T00:01:28.458Z,13.70
2022-12-16T00:03:57.567Z,13.90
2022-12-16T00:06:29.155Z,14.20
2022-12-16T00:08:56.969Z,17.98
2022-12-16T00:11:24.246Z,20.27
2022-12-16T00:13:51.408Z,22.77
2022-12-16T00:16:20.846Z,19.65
2022-12-16T00:18:49.222Z,18.95
2022-12-16T00:21:20.076Z,18.42
2022-12-16T00:23:47.546Z,18.52
2022-12-16T00:26:14.924Z,15.20
2022-12-16T00:28:45.042Z,14.60
2022-12-16T00:31:12.851Z,12.20
2022-12-16T00:33:45.910Z,17.10
2022-12-16T00:36:13.024Z,17.92
2022-12-16T00:38:40.964Z,21.08
2022-12-16T00:41:08.279Z,20.85
2022-12-16T00:43:35.622Z,21.20
2022-12-16T00:46:04.331Z,21.63
2022-12-16T00:48:35.866Z,17.83
2022-12-16T00:51:03.403Z,17.00
2022-12-16T00:53:31.119Z,16.63
2022-12-16T00:56:20.299Z,17.38
2022-12-16T00:58:50.998Z,15.13
2022-12-16T01:01:54.314Z,15.00
2022-12-16T01:04:22.695Z,16.40
2022-12-16T01:06:49.573Z,16.70
2022-12-16T01:09:17.505Z,15.60
2022-12-16T01:11:44.322Z,16.92
2022-12-16T01:14:11.303Z,17.75
2022-12-16T01:16:38.457Z,16.20
2022-12-16T01:19:05.515Z,16.85
2022-12-16T01:21:32.706Z,16.23
2022-12-16T01:23:59.679Z,16.95
2022-12-16T01:26:26.590Z,17.80
2022-12-16T01:28:53.582Z,19.63
2022-12-16T01:31:22.591Z,21.55
2022-12-16T01:33:49.780Z,20.08
2022-12-16T01:36:17.208Z,15.93
2022-12-16T01:38:44.615Z,16.52
2022-12-16T01:41:13.833Z,17.60
2022-12-16T01:43:41.722Z,19.77
2022-12-16T01:46:23.556Z,19.17
2022-12-16T01:49:03.960Z,19.50
2022-12-16T01:51:40.928Z,18.77
2022-12-16T01:54:13.463Z,19.20
2022-12-16T01:56:45.982Z,20.70
2022-12-16T01:59:16.037Z,18.08
2022-12-16T02:01:43.093Z,17.63
2022-12-16T02:04:10.041Z,17.48
2022-12-16T02:06:37.076Z,17.42
2022-12-16T02:09:09.002Z,16.60
2022-12-16T02:12:05.104Z,16.55
2022-12-16T02:15:11.486Z,15.85
2022-12-16T02:18:13.126Z,17.45
2022-12-16T02:21:13.713Z,16.42
2022-12-16T02:24:05.276Z,16.70
2022-12-16T02:26:53.774Z,15.55
2022-12-16T02:29:59.857Z,16.63
2022-12-16T02:32:57.799Z,16.80
2022-12-16T02:35:33.181Z,16.38
2022-12-16T02:38:25.199Z,16.63
2022-12-16T02:40:55.351Z,17.30
2022-12-16T02:43:40.498Z,16.75
2022-12-16T02:46:09.294Z,17.38
2022-12-16T02:48:36.991Z,18.20
2022-12-16T02:51:03.958Z,17.08
2022-12-16T02:53:34.478Z,22.65
2022-12-16T02:56:04.958Z,14.35
2022-12-16T02:58:53.097Z,22.03
2022-12-16T03:01:31.571Z,23.05
2022-12-16T03:04:06.882Z,22.33
2022-12-16T03:06:37.158Z,20.77
2022-12-16T03:09:09.251Z,21.52
2022-12-16T03:11:38.301Z,20.90
2022-12-16T03:14:07.467Z,21.48
2022-12-16T03:16:35.013Z,22.70
2022-12-16T03:19:07.035Z,25.88
2022-12-16T03:21:44.295Z,26.90
2022-12-16T03:24:14.021Z,24.27
2022-12-16T03:26:58.980Z,24.33
2022-12-16T03:29:32.915Z,35.03
2022-12-16T03:32:05.037Z,37.70
2022-12-16T03:34:52.067Z,32.05
2022-12-16T03:37:22.622Z,24.05
2022-12-16T03:39:53.670Z,21.15
2022-12-16T03:42:20.633Z,22.50
2022-12-16T03:44:49.532Z,22.67
2022-12-16T03:47:21.662Z,26.23
2022-12-16T03:49:50.533Z,19.70
2022-12-16T03:52:17.604Z,19.83
2022-12-16T03:54:44.443Z,20.80
2022-12-16T03:57:15.441Z,20.48
2022-12-16T03:59:43.198Z,23.05
2022-12-16T04:02:10.278Z,24.42
2022-12-16T04:04:37.411Z,37.30
2022-12-16T04:07:22.349Z,39.42
2022-12-16T04:09:50.465Z,33.72
2022-12-16T04:12:36.821Z,36.15
2022-12-16T04:15:23.826Z,31.23
2022-12-16T04:18:09.087Z,28.20
2022-12-16T04:21:01.651Z,26.67
2022-12-16T04:23:49.336Z,22.27
2022-12-16T04:26:16.692Z,23.67
2022-12-16T04:28:43.535Z,25.30
2022-12-16T04:31:10.817Z,25.75
2022-12-16T04:37:31.255Z,28.50
2022-12-16T04:40:17.246Z,28.80
2022-12-16T04:43:03.184Z,27.73
2022-12-16T04:45:48.916Z,29.15
2022-12-16T04:48:35.492Z,25.98
2022-12-16T04:51:23.353Z,19.45
2022-12-16T04:54:10.228Z,19.63
2022-12-16T04:56:55.973Z,20.27
2022-12-16T04:59:41.556Z,20.42
2022-12-16T05:02:27.249Z,23.70
2022-12-16T05:05:12.618Z,23.67
2022-12-16T05:07:58.062Z,23.55
2022-12-16T05:10:45.840Z,22.48
2022-12-16T05:13:33.169Z,26.08
2022-12-16T05:16:29.278Z,28.80
2022-12-16T05:19:15.149Z,27.70
2022-12-16T05:22:00.534Z,25.90
2022-12-16T05:24:49.865Z,27.50
2022-12-16T05:27:38.198Z,38.50
2022-12-16T05:30:26.868Z,41.35
2022-12-16T05:33:15.053Z,44.53
2022-12-16T05:36:04.094Z,52.95
2022-12-16T05:38:49.421Z,60.58
2022-12-16T05:41:35.360Z,63.83
2022-12-16T05:44:20.895Z,56.03
2022-12-16T05:47:06.889Z,39.38
2022-12-16T05:49:52.825Z,28.35
2022-12-16T05:52:38.911Z,31.98
2022-12-16T05:55:27.844Z,27.35
2022-12-16T05:58:16.322Z,33.45
2022-12-16T06:01:20.449Z,40.17
2022-12-16T06:04:06.697Z,44.97
2022-12-16T06:06:52.843Z,46.17
2022-12-16T06:09:39.860Z,40.20
2022-12-16T06:12:25.080Z,42.50
2022-12-16T06:15:11.214Z,43.90
2022-12-16T06:18:01.304Z,48.97
2022-12-16T06:20:47.339Z,42.53
2022-12-16T06:23:34.053Z,39.45
2022-12-16T06:26:26.010Z,36.33
2022-12-16T06:29:11.892Z,36.13
2022-12-16T06:31:57.642Z,36.40
2022-12-16T06:34:43.364Z,35.35
2022-12-16T06:37:29.394Z,38.00
2022-12-16T06:40:15.345Z,38.05
2022-12-16T06:43:07.243Z,36.92
2022-12-16T06:45:55.078Z,40.22
2022-12-16T06:48:41.308Z,37.53
2022-12-16T06:51:34.001Z,44.20
2022-12-16T06:54:31.302Z,45.33
2022-12-16T06:57:28.324Z,43.97
2022-12-16T07:00:14.666Z,40.38
2022-12-16T07:03:00.188Z,44.28
2022-12-16T07:05:49.522Z,45.67
2022-12-16T07:08:35.138Z,46.83
2022-12-16T07:11:20.819Z,43.35
2022-12-16T07:14:06.216Z,50.50
2022-12-16T07:16:51.982Z,50.20
2022-12-16T07:19:37.569Z,46.90
2022-12-16T07:22:22.953Z,47.53
2022-12-16T07:25:09.208Z,60.20
2022-12-16T07:27:55.080Z,53.47
2022-12-16T07:30:41.177Z,50.38
2022-12-16T07:33:29.949Z,51.92
2022-12-16T07:36:16.446Z,48.60
2022-12-16T07:39:01.700Z,53.80
2022-12-16T07:41:47.870Z,49.78
2022-12-16T07:44:33.974Z,46.17
2022-12-16T07:47:20.043Z,39.45
2022-12-16T07:50:08.441Z,36.60
2022-12-16T07:52:54.339Z,37.30
2022-12-16T07:55:41.697Z,35.25
2022-12-16T07:58:33.711Z,32.95
2022-12-16T08:01:19.946Z,43.88
2022-12-16T08:04:09.082Z,50.72
2022-12-16T08:06:55.354Z,42.42
2022-12-16T08:09:41.283Z,50.08
2022-12-16T08:12:27.461Z,40.95
2022-12-16T08:15:18.322Z,40.45
2022-12-16T08:18:08.969Z,43.80
2022-12-16T08:20:57.806Z,35.88
2022-12-16T08:23:43.987Z,51.58
2022-12-16T08:26:32.776Z,52.63
2022-12-16T08:29:43.127Z,45.33
2022-12-16T08:32:26.339Z,53.67
2022-12-16T08:35:12.302Z,50.40
2022-12-16T08:37:58.426Z,46.35
2022-12-16T08:40:43.873Z,38.88
2022-12-16T08:43:29.908Z,38.80
2022-12-16T08:46:18.792Z,33.97
2022-12-16T08:49:04.236Z,31.80
2022-12-16T08:55:30.097Z,34.85
2022-12-16T08:58:19.954Z,34.90
2022-12-16T09:01:07.812Z,38.67
2022-12-16T09:04:08.186Z,28.25
2022-12-16T09:10:09.965Z,22.52
2022-12-16T09:12:55.279Z,22.40
2022-12-16T09:15:41.253Z,23.63
2022-12-16T09:18:26.684Z,21.73
2022-12-16T09:21:15.165Z,20.25
2022-12-16T09:24:17.890Z,15.82
2022-12-16T09:27:03.661Z,17.55
2022-12-16T09:29:49.354Z,20.25
2022-12-16T09:32:35.381Z,21.27
2022-12-16T09:35:21.550Z,25.35
2022-12-16T09:38:07.696Z,27.50
2022-12-16T09:40:57.621Z,29.00
2022-12-16T09:44:32.863Z,28.90
2022-12-16T09:48:09.908Z,27.65
2022-12-16T09:50:59.041Z,27.40
2022-12-16T09:53:47.227Z,41.70
2022-12-16T09:56:40.362Z,36.85
2022-12-16T09:59:55.559Z,33.53
2022-12-16T10:02:55.005Z,34.55
2022-12-16T10:05:49.112Z,50.95
2022-12-16T10:08:43.626Z,55.50
2022-12-16T10:11:52.671Z,94.57
2022-12-16T10:14:46.205Z,72.13
2022-12-16T10:17:40.833Z,75.53
2022-12-16T10:21:06.540Z,66.50
2022-12-16T10:24:24.444Z,53.63
2022-12-16T10:27:31.013Z,42.38
2022-12-16T10:30:22.014Z,30.75
2022-12-16T10:33:10.189Z,32.53
2022-12-16T10:36:10.409Z,39.53
2022-12-16T10:39:08.151Z,37.97
2022-12-16T10:42:01.379Z,37.60
2022-12-16T10:45:11.673Z,37.65
2022-12-16T10:47:57.803Z,43.08
2022-12-16T10:50:46.888Z,51.00
2022-12-16T10:53:45.323Z,75.75
2022-12-16T10:57:09.166Z,73.13
2022-12-16T10:59:56.315Z,67.30
2022-12-16T11:02:52.797Z,74.85
2022-12-16T11:05:47.650Z,65.53
2022-12-16T11:08:46.929Z,68.00
2022-12-16T11:11:47.440Z,71.63
2022-12-16T11:14:50.355Z,74.00
2022-12-16T11:17:53.364Z,142.27
2022-12-16T11:20:42.435Z,32.60
2022-12-16T11:23:27.724Z,27.75
2022-12-16T11:26:37.508Z,16.95
2022-12-16T11:29:30.180Z,43.33
2022-12-16T11:32:41.898Z,24.02
2022-12-16T11:35:42.245Z,29.38
2022-12-16T11:38:37.386Z,18.80
2022-12-16T11:41:40.597Z,26.13
2022-12-16T11:44:34.713Z,28.15
2022-12-16T11:47:20.816Z,25.98
2022-12-16T11:50:06.914Z,22.30
2022-12-16T11:53:43.177Z,24.75
2022-12-16T11:56:34.622Z,22.88
2022-12-16T11:59:26.327Z,22.73
2022-12-16T12:05:13.559Z,24.05
2022-12-16T12:08:31.521Z,25.17
2022-12-16T12:11:36.730Z,24.63
2022-12-16T12:14:32.744Z,25.48
2022-12-16T12:17:54.306Z,21.48
2022-12-16T12:21:01.385Z,27.25
2022-12-16T12:24:14.814Z,26.52
2022-12-16T12:27:13.873Z,30.90
2022-12-16T12:30:30.962Z,39.22
2022-12-16T12:33:35.229Z,30.13
2022-12-16T12:40:05.672Z,26.42
2022-12-16T12:43:06.927Z,25.73
2022-12-16T12:46:16.987Z,31.02
2022-12-16T12:49:02.837Z,66.63
2022-12-16T12:51:55.061Z,32.65
2022-12-16T12:55:21.253Z,32.95
2022-12-16T12:58:09.013Z,35.28
2022-12-16T13:01:05.923Z,45.72
2022-12-16T13:04:16.564Z,80.97
2022-12-16T13:07:02.088Z,46.60
2022-12-16T13:09:57.816Z,55.60
2022-12-16T13:12:45.847Z,36.88
2022-12-16T13:15:57.021Z,39.58
2022-12-16T13:18:42.407Z,32.08
2022-12-16T13:21:56.327Z,51.92
2022-12-16T13:24:45.691Z,41.83
2022-12-16T13:27:33.823Z,37.88
2022-12-16T13:30:31.770Z,43.85
2022-12-16T13:33:27.208Z,44.97
2022-12-16T13:36:16.145Z,56.67
2022-12-16T13:39:13.261Z,65.22
2022-12-16T13:42:02.626Z,49.33
2022-12-16T13:45:00.679Z,58.38
2022-12-16T13:48:13.899Z,68.53
2022-12-16T13:51:18.631Z,70.03
2022-12-16T13:54:12.432Z,56.08
2022-12-16T13:57:08.392Z,59.67
2022-12-16T13:59:58.732Z,63.15
2022-12-16T14:02:49.359Z,70.25
2022-12-16T14:05:48.769Z,67.90
2022-12-16T14:08:43.993Z,70.70
2022-12-16T14:11:44.864Z,75.18
2022-12-16T14:14:42.148Z,90.90
2022-12-16T14:17:47.362Z,84.10
2022-12-16T14:21:11.370Z,98.82
2022-12-16T14:24:19.751Z,88.85
2022-12-16T14:27:06.601Z,93.80
2022-12-16T14:29:52.093Z,105.38
2022-12-16T14:32:48.893Z,115.38
2022-12-16T14:35:42.000Z,115.25
2022-12-16T14:38:48.238Z,110.20
2022-12-16T14:41:44.437Z,131.43
2022-12-16T14:44:39.380Z,125.75
2022-12-16T14:47:25.461Z,143.02
2022-12-16T14:50:12.717Z,159.57
2022-12-16T14:53:01.073Z,157.38
2022-12-16T14:55:54.137Z,155.75
2022-12-16T14:58:42.331Z,180.95
2022-12-16T15:01:41.909Z,213.70
2022-12-16T15:04:41.057Z,187.65
2022-12-16T15:07:34.565Z,157.65
2022-12-16T15:10:20.637Z,143.90
2022-12-16T15:13:07.697Z,166.15
2022-12-16T15:16:00.242Z,162.25
2022-12-16T15:19:01.756Z,166.20
2022-12-16T15:21:48.105Z,152.43
2022-12-16T15:24:37.458Z,183.18
2022-12-16T15:27:38.409Z,176.45
2022-12-16T15:30:56.604Z,191.52
2022-12-16T15:33:54.255Z,193.88
2022-12-16T15:36:51.771Z,200.63
2022-12-16T15:39:50.899Z,196.80
2022-12-16T15:42:44.149Z,153.50
2022-12-16T15:45:46.312Z,144.52
2022-12-16T15:48:44.932Z,188.90
2022-12-16T15:51:45.947Z,229.88
2022-12-16T15:54:35.173Z,262.47
2022-12-16T15:57:32.721Z,239.90
2022-12-16T16:00:18.518Z,226.60
2022-12-16T16:03:08.568Z,184.13
2022-12-16T16:05:55.475Z,182.65
2022-12-16T16:08:40.892Z,162.15
2022-12-16T16:11:26.966Z,169.23
2022-12-16T16:14:14.557Z,169.07
2022-12-16T16:17:00.785Z,155.98
2022-12-16T16:19:46.706Z,156.50
2022-12-16T16:22:36.267Z,177.85
2022-12-16T16:25:22.453Z,168.27
2022-12-16T16:28:08.734Z,172.35
2022-12-16T16:30:54.628Z,167.77
2022-12-16T16:33:40.410Z,151.10
2022-12-16T16:36:33.887Z,118.40
2022-12-16T16:39:19.526Z,150.63
2022-12-16T16:42:05.241Z,150.95
2022-12-16T16:44:50.665Z,155.75
2022-12-16T16:47:36.408Z,219.93
2022-12-16T16:50:22.841Z,160.15
2022-12-16T16:53:08.620Z,141.18
2022-12-16T16:55:53.860Z,148.15
2022-12-16T16:58:45.286Z,164.18
2022-12-16T17:01:36.228Z,177.95
2022-12-16T17:04:32.745Z,190.07
2022-12-16T17:07:18.615Z,213.38
2022-12-16T17:10:04.523Z,222.80
2022-12-16T17:12:50.301Z,219.65
2022-12-16T17:15:47.858Z,214.98
2022-12-16T17:18:35.493Z,196.48
2022-12-16T17:21:22.070Z,149.43
2022-12-16T17:24:08.202Z,160.68
2022-12-16T17:26:54.643Z,195.52
2022-12-16T17:29:42.384Z,190.05
2022-12-16T17:32:28.504Z,192.45
2022-12-16T17:35:17.593Z,189.18
2022-12-16T17:38:03.146Z,171.60
2022-12-16T17:40:48.991Z,154.57
2022-12-16T17:43:35.200Z,154.68
2022-12-16T17:46:23.240Z,167.50
2022-12-16T17:49:13.441Z,183.95
2022-12-16T17:52:07.914Z,180.68
2022-12-16T17:54:53.626Z,205.35
2022-12-16T17:57:39.277Z,203.85
2022-12-16T18:00:29.033Z,227.57
2022-12-16T18:03:15.176Z,182.68
2022-12-16T18:06:01.143Z,195.25
2022-12-16T18:08:46.521Z,132.93
2022-12-16T18:11:49.746Z,143.43
2022-12-16T18:14:35.657Z,111.72
2022-12-16T18:17:21.658Z,89.50
2022-12-16T18:20:13.038Z,76.57
2022-12-16T18:23:01.977Z,94.63
2022-12-16T18:25:47.588Z,134.13
2022-12-16T18:28:33.016Z,108.85
2022-12-16T18:31:24.252Z,109.32
2022-12-16T18:34:10.157Z,135.50
2022-12-16T18:36:55.801Z,144.43
2022-12-16T18:39:41.225Z,134.70
2022-12-16T18:42:28.852Z,147.40
2022-12-16T18:45:15.102Z,121.72
2022-12-16T18:48:00.402Z,73.57
2022-12-16T18:50:46.636Z,62.58
2022-12-16T18:53:32.792Z,63.15
2022-12-16T18:56:24.731Z,67.75
2022-12-16T18:59:10.756Z,60.10
2022-12-16T19:01:57.096Z,47.10
2022-12-16T19:04:45.280Z,87.70
2022-12-16T19:07:33.800Z,95.38
2022-12-16T19:10:20.769Z,70.95
2022-12-16T19:13:06.525Z,83.15
2022-12-16T19:15:52.070Z,85.68
2022-12-16T19:18:38.002Z,84.25
2022-12-16T19:21:23.864Z,98.38
2022-12-16T19:24:09.390Z,86.80
2022-12-16T19:26:56.596Z,93.20
2022-12-16T19:29:43.412Z,93.07
2022-12-16T19:32:29.047Z,98.45
2022-12-16T19:35:14.676Z,102.70
2022-12-16T19:37:59.920Z,100.85
2022-12-16T19:40:45.347Z,117.93
2022-12-16T19:43:31.428Z,124.70
2022-12-16T19:46:17.362Z,150.98
2022-12-16T19:49:03.264Z,156.50
2022-12-16T19:51:48.602Z,168.73
2022-12-16T19:54:34.392Z,167.98
2022-12-16T19:57:19.959Z,174.93
2022-12-16T20:00:05.807Z,157.52
2022-12-16T20:05:43.031Z,98.72
2022-12-16T20:08:28.624Z,102.72
2022-12-16T20:11:14.464Z,105.63
2022-12-16T20:13:59.902Z,103.38
2022-12-16T20:16:45.525Z,87.05
2022-12-16T20:19:31.081Z,53.13
2022-12-16T20:22:17.068Z,56.28
2022-12-16T20:25:03.005Z,76.47
2022-12-16T20:27:49.072Z,69.47
2022-12-16T20:30:46.180Z,77.18
2022-12-16T20:33:34.055Z,89.10
2022-12-16T20:36:23.013Z,106.85
2022-12-16T20:39:08.750Z,88.88
2022-12-16T20:41:56.111Z,91.80
2022-12-16T20:44:42.125Z,97.70
2022-12-16T20:47:27.792Z,113.72
2022-12-16T20:50:13.492Z,110.95
2022-12-16T20:52:59.326Z,94.10
2022-12-16T20:55:44.893Z,99.75
2022-12-16T20:58:35.652Z,93.57
2022-12-16T21:01:21.057Z,78.50
2022-12-16T21:04:19.335Z,105.30
2022-12-16T21:10:15.318Z,90.53
2022-12-16T21:13:06.682Z,101.07
2022-12-16T21:15:54.536Z,102.90
2022-12-16T21:18:57.090Z,105.30
2022-12-16T21:25:24.366Z,98.00
2022-12-16T21:28:14.110Z,103.93
2022-12-16T21:31:07.839Z,109.25
2022-12-16T21:33:54.539Z,101.13
2022-12-16T21:36:49.796Z,103.75
2022-12-16T21:39:35.805Z,129.48
2022-12-16T21:42:21.434Z,111.70
2022-12-16T21:45:07.098Z,90.88
2022-12-16T21:47:53.261Z,96.00
2022-12-16T21:50:41.350Z,68.28
2022-12-16T21:53:26.707Z,92.40
2022-12-16T21:56:14.038Z,91.53
2022-12-16T21:59:01.922Z,64.85
2022-12-16T22:01:47.892Z,48.33
2022-12-16T22:04:34.205Z,38.55
2022-12-16T22:07:22.405Z,42.78
2022-12-16T22:10:08.292Z,43.42
2022-12-16T22:12:56.302Z,73.47
2022-12-16T22:15:41.700Z,113.00
2022-12-16T22:18:27.637Z,104.68
2022-12-16T22:21:21.843Z,91.30
2022-12-16T22:24:07.619Z,85.63
2022-12-16T22:26:53.608Z,64.45
2022-12-16T22:29:39.244Z,38.92
2022-12-16T22:32:25.633Z,49.80
2022-12-16T22:35:11.416Z,69.38
2022-12-16T22:37:57.105Z,54.50
2022-12-16T22:40:44.736Z,51.45
2022-12-16T22:43:30.067Z,67.60
2022-12-16T22:46:20.127Z,69.03
2022-12-16T22:49:07.384Z,72.95
2022-12-16T22:51:52.636Z,68.57
2022-12-16T22:54:40.282Z,77.15
2022-12-16T22:57:25.713Z,76.28
2022-12-16T23:00:11.598Z,86.53
2022-12-16T23:02:57.224Z,85.50
2022-12-16T23:05:43.023Z,87.35
2022-12-16T23:08:29.006Z,88.88
2022-12-16T23:11:16.240Z,83.57
2022-12-16T23:14:02.269Z,57.88
2022-12-16T23:16:47.752Z,41.72
2022-12-16T23:19:33.698Z,29.88
2022-12-16T23:22:19.126Z,18.75
2022-12-16T23:25:04.925Z,19.10
2022-12-16T23:27:50.276Z,19.52
2022-12-16T23:30:36.292Z,19.73
2022-12-16T23:33:22.160Z,20.25
2022-12-16T23:36:07.756Z,20.95
2022-12-16T23:38:53.262Z,18.88
2022-12-16T23:41:42.886Z,17.75
2022-12-16T23:44:32.138Z,15.70
2022-12-16T23:47:17.953Z,14.60
2022-12-16T23:50:03.412Z,13.70
2022-12-16T23:52:49.281Z,13.25
2022-12-16T23:55:34.883Z,11.68
2022-12-16T23:58:23.539Z,11.35
